Meteo Giornale » Osservazioni meteo Turchia » Anadolu
ore: 20:50 - Osservazioni Meteo Anadolu
Lat. 39° 49' N Lon. 30° 31' E Alt. 789 metri s.l.m.
23 °C
Sereno
Temp. 24 Ore
11 °C
31 °C
Ovest/Nord-Ovest
18.5 Km/h
Dew point 10 °C
Umidità 43 %
Visibilità 10 Km
Il sole sorge alle ore 06:25
Il sole tramonta alle ore 19:30
| Data e Ora | Cielo e Fenomeni | T °C | DP °C | Um. % | Pres. hPa | Vis. km | Vento km/h | |
|---|---|---|---|---|---|---|---|---|
| Oggi h: 20:50 | Sereno | 23 | 10 | 43 | 1018 | 10 | O/NO 18.5 | |
| Oggi h: 19:50 | Sereno | 23 | 11 | 46 | 1017 | 10 | O 13 | |
| Oggi h: 18:50 | Sereno | 27 | 9 | 32 | 1016 | 10 | N/NO 18.5 | |
| Oggi h: 17:50 | Poco Nuvoloso | 29 | 7 | 25 | 1016 | 10 | N 22.2 | |
| Oggi h: 16:50 | Poco Nuvoloso | 30 | 5 | 20 | 1016 | 10 | NO 14.8 | |
| Oggi h: 15:50 | Poco Nuvoloso | 30 | 7 | 23 | 1016 | 10 | NO 14.8 | |
| Oggi h: 14:50 | Poco Nuvoloso | 31 | 12 | 31 | 1016 | 10 | NO 16.7 | |
| Oggi h: 13:50 | Poco Nuvoloso | 30 | 9 | 27 | 1017 | 10 | N 7.4 | |
| Oggi h: 12:50 | Poco Nuvoloso | 29 | 13 | 37 | 1017 | 10 | N 7.4 | |
| Oggi h: 11:50 | Sereno | 27 | 14 | 44 | 1017 | 10 | N 5.5 | |
| Oggi h: 10:50 | Sereno | 24 | 14 | 53 | 1018 | 10 | N 5.5 | |
| Oggi h: 09:50 | Sereno | 21 | 14 | 64 | 1018 | 10 | N 5.5 | |
| Oggi h: 08:50 | Sereno | 18 | 14 | 77 | 1018 | 10 | N 5.5 | |
| Oggi h: 07:50 | Sereno | 14 | 13 | 93 | 1018 | 10 | N 3.7 | |
| Oggi h: 06:50 | Sereno | 11 | 11 | 100 | 1018 | 10 | N 5.5 | |
| Oggi h: 05:50 | Sereno | 12 | 11 | 93 | 1017 | 10 | N 3.7 | |
| Oggi h: 04:50 | Sereno | 12 | 12 | 100 | 1017 | 10 | N 3.7 | |
| Oggi h: 03:50 | Sereno | 14 | 13 | 93 | 1017 | 10 | N 3.7 | |
| Oggi h: 02:50 | Sereno | 16 | 13 | 82 | 1017 | 10 | O/SO 9.3 | |
| Oggi h: 01:50 | Sereno | 16 | 14 | 87 | 1017 | 10 | O/SO 11.1 | |
| Oggi h: 00:50 | Sereno | 17 | 14 | 82 | 1018 | 10 | O/SO 14.8 | |
| Ieri h: 23:50 | Sereno | 18 | 14 | 77 | 1017 | 10 | O 16.7 | |
| Ieri h: 22:50 | Sereno | 19 | 15 | 77 | 1017 | 10 | O/SO 14.8 | |
| Ieri h: 21:50 | Sereno | 20 | 15 | 72 | 1017 | 10 | O/NO 13 | |



